Impacts TAF Board INFO
FOR SITUATIONAL AWARENESS. NOT TO BE USED FOR FLIGHT PLANNING PURPOSES.
IDs:

KDFW - Dallas-Ft Worth Intl, TX, US

Issued at 0303 UTC 19 Feb 2018
Updated at 0357 UTC 19 Feb 2018
Potential Impact None Slight Moderate High
Time<<19/16Z 19/17Z 19/18Z 19/19Z 19/20Z 19/21Z 19/22Z 19/23Z 20/00Z 20/01Z 20/02Z 20/03Z 20/04Z>>
Type PRVL PRVL PRVL PRVL PRVL PRVL PRVL PRVL PRVL PRVL PRVL PRVL PRVL
VIS >6 >6 >6 >6 >6 >6 >6 >6 >6 >6 >6 >6 >6
CIG 13 13 22 22 22 22 22 22 22 22 22 22 22
Cover BKN BKN BKN BKN BKN BKN BKN BKN BKN BKN BKN BKN BKN
FltCat MVFR MVFR MVFR MVFR MVFR MVFR MVFR MVFR MVFR MVFR MVFR MVFR MVFR
WX VCSH VCSH VCSH VCSH VCSH VCSH VCSH VCSH VCSH VCSH VCSH VCSH VCSH
WDir 190 190 180 180 180 180 180 180 180 180 180 180 180
WSpd 16 16 18 18 18 18 18 18 18 18 18 18 18
WGst -- -- -- -- -- -- -- -- -- -- -- -- --

Raw TAF
KDFW 190303Z 1903/2006 17007KT 4SM BR OVC005
  TEMPO 1903/1906 1SM -DZ BR OVC002
  FM190600 17013G23KT P6SM SCT012 BKN020
  FM191000 18018KT 6SM BR VCSH OVC008
  FM191500 19016KT P6SM VCSH BKN013
  FM191800 18018KT P6SM VCSH BKN022


METAR Board
Radar Display
Forecast Discussion

FOR SITUATIONAL AWARENESS. NOT TO BE USED FOR FLIGHT PLANNING PURPOSES.